Friday, November 17, 2017, 2:30 PM EST
Back to Local

KMFV, Melfa / Accomack Airport

Location: Melfa, VA, United States Lat: 37.65
Local Time: 2:30 PM EST (19:30 GMT) Lon: -75.767
Time Zone: US/Eastern Elev: 49 ft

Show me the last for .
Show Coded

Time T Td Feel RH Dir Speed Gust Alt SLP Vis Weather Sky Remarks
2017-11-17 14:10 51 36 - 55 330° 12 - 30.14 - 10 CLR None
2017-11-17 13:50 51 35 - 53 330° 14 18 30.14 - 10 CLR None
2017-11-17 13:30 52 35 - 51 330° 13 18 30.15 - 10 CLR None
2017-11-17 13:10 51 33 - 50 330° 17 24 30.16 - 10 CLR None
2017-11-17 12:50 51 36 - 56 320° 13 24 30.16 - 10 CLR 6-hr Min Temp (1pm): 43.3°F
6-hr Max Temp (1pm): 51.4°F
2017-11-17 12:30 51 35 - 54 310° 17 24 30.16 - 10 CLR None
2017-11-17 12:10 50 35 - 55 330° 13 24 30.16 - 10 CLR None
2017-11-17 11:50 51 35 - 55 320° 10 24 30.16 - 10 CLR None
2017-11-17 11:30 51 34 - 52 320° 14 28 30.16 - 10 CLR None
2017-11-17 11:10 51 35 - 54 330° 15 22 30.17 - 10 CLR None
2017-11-17 10:50 50 34 43 53 320° 17 25 30.17 - 10 CLR None
2017-11-17 10:30 49 34 43 54 340° 16 22 30.18 - 10 CLR None
2017-11-17 10:10 49 34 43 54 330° 12 22 30.19 - 10 CLR None
2017-11-17 09:50 49 34 42 54 340° 14 23 30.19 - 10 CLR None
2017-11-17 09:30 49 34 43 56 320° 14 20 30.18 - 10 CLR None
2017-11-17 09:10 49 34 42 56 330° 15 22 30.18 - 10 CLR None
2017-11-17 08:50 49 34 42 56 340° 16 23 30.19 - 10 CLR None
2017-11-17 08:30 48 33 41 56 330° 12 22 30.19 - 10 CLR None
2017-11-17 08:10 47 34 40 59 330° 12 20 30.19 - 10 CLR None
2017-11-17 07:50 47 34 42 61 340° 10 - 30.19 - 10 CLR None
2017-11-17 07:30 46 34 39 63 320° 10 16 30.17 - 10 CLR None
2017-11-17 07:10 44 34 40 68 320° 7 - 30.17 - 10 CLR None
2017-11-17 06:50 43 34 38 69 320° 8 - 30.16 - 10 CLR 6-hr Min Temp (7am): 43.0°F
6-hr Max Temp (7am): 46.4°F
2017-11-17 06:30 44 33 39 67 310° 8 - 30.16 - 10 CLR None
2017-11-17 06:10 44 33 36 65 320° 8 17 30.15 - 10 CLR None
2017-11-17 05:50 44 33 36 65 320° 12 20 30.14 - 10 CLR None
2017-11-17 05:30 44 32 40 62 330° 8 - 30.14 - 10 CLR None
2017-11-17 05:10 45 32 37 61 330° 8 20 30.13 - 10 CLR None
2017-11-17 04:50 45 32 37 60 330° 13 20 30.13 - 10 CLR None
2017-11-17 04:30 45 32 37 60 340° 8 20 30.13 - 10 CLR None
2017-11-17 04:10 45 32 36 59 330° 12 23 30.12 - 10 CLR None
2017-11-17 03:50 45 32 36 60 320° 14 22 30.12 - 10 CLR None
2017-11-17 03:30 45 32 37 60 330° 9 21 30.11 - 10 SCT035 None
2017-11-17 03:10 45 32 37 61 320° 12 20 30.12 - 10 SCT035 None
2017-11-17 02:50 45 32 37 61 320° 10 20 30.12 - 10 CLR None
2017-11-17 02:30 45 32 37 60 330° 10 21 30.12 - 10 CLR None
2017-11-17 02:10 46 32 37 59 330° 13 22 30.11 - 10 CLR None
2017-11-17 01:50 46 32 38 59 320° 14 23 30.11 - 10 CLR None
2017-11-17 01:30 46 33 37 61 320° 13 24 30.09 - 10 CLR None
2017-11-17 01:10 46 33 38 58 330° 20 25 30.09 - 10 CLR None
2017-11-17 00:50 46 33 38 59 330° 16 25 30.08 - 10 CLR 6-hr Min Temp (1am): 44.4°F
6-hr Max Temp (1am): 52.9°F
2017-11-17 00:30 47 33 38 59 330° 13 26 30.08 - 10 CLR None
2017-11-17 00:10 47 35 39 62 330° 13 23 30.08 - 10 CLR None
2017-11-16 23:50 47 37 40 65 330° 12 22 30.07 - 10 CLR 24-hr Min Temp (12am): 44.4°F
24-hr Max Temp (12am): 62.4°F
2017-11-16 23:30 47 35 39 62 330° 13 23 30.07 - 10 CLR None
2017-11-16 23:10 47 34 40 59 330° 9 18 30.07 - 10 CLR None
2017-11-16 22:50 48 34 40 58 330° 14 22 30.07 - 10 CLR None
2017-11-16 22:30 48 35 41 59 330° 13 21 30.06 - 10 CLR None
2017-11-16 22:10 49 35 41 58 330° 15 24 30.05 - 10 CLR None
2017-11-16 21:50 49 37 42 61 350° 14 25 30.05 - 10 CLR None
2017-11-16 21:30 51 37 - 57 350° 13 23 30.04 - 10 CLR None
2017-11-16 21:10 51 37 - 57 340° 13 22 30.02 - 10 CLR None
2017-11-16 20:50 51 37 - 58 340° 14 20 30.02 - 10 CLR None
2017-11-16 20:30 52 38 - 59 340° 10 20 30.01 - 10 CLR None
2017-11-16 20:10 53 40 - 61 350° 12 16 30.00 - 10 CLR None
2017-11-16 19:50 53 42 - 66 350° 12 22 29.99 - 10 CLR None
2017-11-16 19:30 51 43 - 72 340° 8 17 29.98 - 10 SCT070 None
2017-11-16 19:10 45 43 43 93 280° 3 - 29.96 - 10 SCT070 None
2017-11-16 18:50 47 44 45 89 320° 3 - 29.95 - 10 CLR 6-hr Min Temp (7pm): 46.6°F
6-hr Max Temp (7pm): 62.4°F
2017-11-16 18:30 47 44 - 89 - Calm - 29.95 - 10 CLR None
2017-11-16 18:10 50 44 - 78 - Calm - 29.94 - 10 CLR None
2017-11-16 17:50 50 44 48 78 300° 5 - 29.94 - 10 CLR None
2017-11-16 17:30 51 44 - 75 320° 5 - 29.94 - 10 CLR None
2017-11-16 17:10 53 44 - 73 340° 3 - 29.92 - 10 CLR None
2017-11-16 16:50 55 44 - 67 - Calm - 29.91 - 10 CLR None
2017-11-16 16:30 57 44 - 62 - Calm - 29.91 - 10 CLR None
2017-11-16 16:10 58 46 - 62 - Calm - 29.91 - 10 CLR None
2017-11-16 15:50 60 45 - 58 320° 7 - 29.91 - 10 CLR None
2017-11-16 15:30 61 44 - 53 310° 5 - 29.89 - 10 CLR None
2017-11-16 15:10 61 43 - 50 290° 6 - 29.89 - 10 CLR None
2017-11-16 14:50 62 43 - 49 300° 9 - 29.89 - 10 CLR None

Support USWX by starting your Amazon purchase here.